ADDS TAF Data INFO
IDs: Format: Raw Decoded Include METARs

Data at: 0525 UTC 16 Dec 2017

KTYS 160453Z 17003KT 8SM FEW044 M03/M04 A3023 RMK AO2 SLP242 T10281044 400221033

KTYS 160520Z 1606/1706 20005KT P6SM SCT050
  TEMPO 1606/1609 BKN050
  FM161500 22007KT P6SM SCT250
  FM170100 VRB03KT P6SM SCT150


KGSO 160454Z 31006KT 10SM FEW250 M03/M07 A3010 RMK AO2 SLP201 T10281072 400561028

KGSO 152322Z 1600/1624 VRB04KT P6SM SCT250
  FM161900 24009KT P6SM SKC


KCLT 160452Z 34004KT 10SM CLR M01/M06 A3013 RMK AO2 SLP207 T10061061 400891006

KCLT 160158Z 1602/1706 33004KT P6SM FEW250
  FM160700 00000KT P6SM FEW250
  FM161400 22005KT P6SM FEW250
  FM170000 21004KT P6SM BKN250


KRDU 160451Z 28003KT 10SM CLR M01/M05 A3013 RMK AO2 SLP204 T10061050 400611006

KRDU 152322Z 1600/1624 VRB04KT P6SM SCT250
  FM161800 24007KT P6SM BKN250


KPOB 160456Z AUTO 00000KT 10SM CLR M01/M03 A3012 RMK AO2 SLP204 T10111031 401181012

TAF KPOB 160200Z 1602/1708 35006KT 9999 FEW120 QNH3005INS
  BECMG 1611/1612 26006KT 9999 SKC QNH3019INS TX14/1619Z TNM02/1611Z


KFBG 160456Z AUTO 33003KT 10SM CLR 01/M03 A3012 RMK AO2 SLP204 T00081030 401191006

TAF KFBG 160200Z 1602/1708 35006KT 9999 FEW120 QNH3005INS
  BECMG 1611/1612 26006KT 9999 SKC QNH3019INS TX14/1619Z TN00/1612Z


KFAY 160453Z 31005KT 10SM CLR 03/M02 A3013 RMK AO2 SLP197 T00331017 401330011

KFAY 152322Z 1600/1624 VRB04KT P6SM SCT200
  FM161800 24007KT P6SM FEW150


KRWI 160453Z AUTO 27004KT 10SM CLR 01/M03 A3011 RMK AO2 SLP198 T00111033 400941022

KRWI 152322Z 1600/1624 VRB03KT P6SM SCT200
  FM161800 24006KT P6SM SKC


KISO 160156Z 33004KT 10SM CLR 04/M01 A3007 RMK AO2

KISO 160521Z 1606/1706 33004KT P6SM SKC AMD LTD TO CLD VIS AND WIND

KGWW 160510Z AUTO 30003KT 10SM CLR 02/M03 A3012 RMK AO2 T00201030

No TAF found for KGWW

KGSB 160456Z AUTO 31004KT 10SM CLR 02/M03 A3010 RMK AO2 SLP196 T00211026 401320007 $

TAF KGSB 160500Z 1605/1711 31006KT 9999 SKC QNH3005INS
  BECMG 1614/1615 26006KT 9999 SKC QNH3025INS TX11/1619Z TNM01/1611Z


KDPL 160505Z AUTO 00000KT 10SM CLR 01/M03 A3012 RMK AO2

No TAF found for KDPL

KCTZ 160505Z AUTO 00000KT 10SM CLR 01/00 A3014 RMK AO2 T00131005

No TAF found for KCTZ

KORF 160451Z 00000KT 10SM CLR 00/M04 A3006 RMK AO2 SLP179 T00001044 401170000

KORF 152323Z 1600/1624 30008KT P6SM SCT150
  FM161200 28004KT P6SM SKC
  FM161600 25008KT P6SM SKC


KLFI 160456Z AUTO 00000KT 10SM CLR M03/M07 A3006 RMK AO2 SLPNO T10311066 400681031

TAF KLFI 160200Z 1602/1708 29009KT 9999 FEW020 QNH2998INS
  BECMG 1616/1617 26012KT 9999 FEW070 QNH3014INS TX07/1621Z TNM02/1612Z


KNTU 160456Z 23003KT 10SM CLR M01/M06 A3006 RMK AO2 SLP182 T10111061 401221011

TAF KNTU 1523/1623 31010KT 9999 FEW025 BKN200 QNH2988INS
  FM160700 30012KT 9999 FEW200 QNH3006INS
  FM161500 27006KT 9999 SCT040 QNH3020INS T03/1611Z T07/1619Z FN20051


KECG 160454Z AUTO 26004KT 10SM CLR M01/M03 A3008 RMK AO2 SLP185 T10061028 401561017

KECG 152323Z 1600/1624 30010KT P6SM SKC
  FM161700 25007KT P6SM SKC


KEWN 160454Z AUTO 28003KT 10SM CLR 02/M01 A3012 RMK AO2 SLP198 T00221011 401610011

KEWN 160521Z 1606/1706 28003KT P6SM SKC

KNKT 160454Z 31008KT 10SM CLR 04/M02 A3011 RMK AO2 SLP193 T00441017 401560044

TAF KNKT 1603/1703 32010KT 9999 SCT200 QNH3003INS
  FM170000 VRB06KT 9999 SKC QNH3015INS T01/1611Z T10/1620Z


KILM 160453Z 33005KT 10SM CLR 04/M01 A3012 RMK AO2 SLP200 T00441011 401610022

KILM 160523Z 1606/1706 36008KT P6SM FEW250
  FM161700 35004KT P6SM SKC


KCAE 160456Z 25006KT 10SM CLR 02/M02 A3016 RMK AO2 SLP214 T00221022 401670022 $

KCAE 160250Z 1603/1624 28008KT P6SM BKN200
  FM160600 VRB03KT P6SM SCT200
  FM161700 21007KT P6SM FEW200


KSSC 160456Z AUTO 29006KT 10SM CLR 05/M02 A3014 RMK AO2 SLP209 T00531025 401510025

TAF KSSC 160000Z 1600/1706 31006KT 9999 SCT200 QNH2996INS
  BECMG 1616/1617 19006KT 9999 FEW250 QNH3025INS TX12/1621Z TN00/1610Z


KMMT 160456Z AUTO 27005KT 10SM CLR 03/M03 A3016 RMK AO2 SLP217 T00311031 401540009 $

TAF KMMT 160000Z 1600/1706 31006KT 9999 SCT200 QNH2998INS
  BECMG 1616/1617 19006KT 9999 FEW250 QNH3025INS TX15/1621Z TN00/1610Z


KMYR 160456Z AUTO 34007KT 10SM CLR 08/01 A3014 RMK AO2 SLP206 T00780011 401610067

KMYR 160523Z 1606/1706 02009KT P6SM FEW200
  FM161800 00000KT P6SM SKC


KCHS 160456Z 32009KT 10SM OVC200 09/M01 A3014 RMK AO2 SLP207 T00941006 401830050

KCHS 152326Z 1600/1624 29008KT P6SM OVC150
  FM160800 VRB05KT P6SM SKC


KSAV 160453Z 30006KT 10SM FEW120 BKN150 09/M01 A3018 RMK AO2 SLP218 LAST T00941006 401720061

KSAV 152326Z 1600/1624 29007KT P6SM BKN150
  FM160800 VRB04KT P6SM SKC


KSVN 160456Z AUTO 30007KT 10SM OVC120 10/M01 M RMK AO2 SLPNO T00981007 401740059 $

TAF KSVN 160500Z 1605/1711 30012KT 9999 SCT200 QNH3012INS
  BECMG 1611/1612 32006KT 9999 FEW200 QNH3019INS
  BECMG 1617/1618 05006KT 9999 FEW250 QNH3025INS TX16/1621Z TN00/1610Z


KDCA 160452Z 19005KT 9SM FEW060 M03/M05 A3004 RMK AO2 SLP171 T10331050 410061033

KDCA 152328Z 1600/1706 28004KT P6SM SCT045
  FM160600 27007KT P6SM FEW250
  FM161200 22006KT P6SM SCT120
  FM161500 23010KT P6SM SCT090
  FM162300 23005KT P6SM FEW250


KADW 160456Z AUTO 22005KT 9SM CLR M05/M06 A3001 RMK AO2 SLPNO T10501063 410231056 $

TAF KADW 160100Z 1601/1707 26006KT 9999 FEW020 QNH2995INS
  BECMG 1615/1616 26012G18KT 9999 BKN085 620857 QNH3011INS
  BECMG 1620/1621 26012KT 9999 BKN085 620857 QNH3013INS
  BECMG 1623/1624 VRB06KT 9999 SCT080 QNH3020INS TX05/1618Z TNM04/1602Z